createdAt,value
2023-02-03T00:00:08.193Z,-5.60
2023-02-03T00:02:41.347Z,-5.60
2023-02-03T00:05:08.757Z,-5.60
2023-02-03T00:07:38.579Z,-5.60
2023-02-03T00:10:07.059Z,-5.60
2023-02-03T00:12:34.679Z,-5.60
2023-02-03T00:15:01.676Z,-5.50
2023-02-03T00:17:28.725Z,-5.50
2023-02-03T00:19:55.678Z,-5.50
2023-02-03T00:22:22.478Z,-5.40
2023-02-03T00:24:49.369Z,-5.30
2023-02-03T00:27:16.240Z,-5.30
2023-02-03T00:29:43.054Z,-5.40
2023-02-03T00:32:09.943Z,-5.40
2023-02-03T00:34:37.163Z,-5.50
2023-02-03T00:37:03.927Z,-5.60
2023-02-03T00:39:30.965Z,-5.60
2023-02-03T00:41:58.168Z,-5.50
2023-02-03T00:44:25.088Z,-5.50
2023-02-03T00:46:51.862Z,-5.60
2023-02-03T00:49:18.794Z,-5.60
2023-02-03T00:51:45.579Z,-5.50
2023-02-03T00:54:13.683Z,-5.50
2023-02-03T00:56:41.533Z,-5.50
2023-02-03T00:59:08.619Z,-5.40
2023-02-03T01:01:36.316Z,-5.50
2023-02-03T01:04:03.865Z,-5.50
2023-02-03T01:06:31.067Z,-5.40
2023-02-03T01:08:58.355Z,-5.40
2023-02-03T01:11:27.727Z,-5.30
2023-02-03T01:13:55.398Z,-5.30
2023-02-03T01:16:24.255Z,-5.30
2023-02-03T01:18:51.712Z,-5.30
2023-02-03T01:21:21.914Z,-5.30
2023-02-03T01:23:48.712Z,-5.30
2023-02-03T01:26:19.224Z,-5.40
2023-02-03T01:28:52.897Z,-5.40
2023-02-03T01:31:22.945Z,-5.50
2023-02-03T01:33:55.292Z,-5.50
2023-02-03T01:36:25.181Z,-5.50
2023-02-03T01:38:52.479Z,-5.50
2023-02-03T01:41:24.438Z,-5.50
2023-02-03T01:43:54.204Z,-5.50
2023-02-03T01:46:38.354Z,-5.50
2023-02-03T01:49:16.814Z,-5.50
2023-02-03T01:51:45.408Z,-5.50
2023-02-03T01:54:18.496Z,-5.50
2023-02-03T01:56:51.613Z,-5.50
2023-02-03T01:59:19.999Z,-5.50
2023-02-03T02:01:47.333Z,-5.50
2023-02-03T02:04:14.850Z,-5.40
2023-02-03T02:06:41.783Z,-5.40
2023-02-03T02:09:12.237Z,-5.30
2023-02-03T02:11:42.598Z,-5.30
2023-02-03T02:14:09.879Z,-5.30
2023-02-03T02:16:48.690Z,-5.30
2023-02-03T02:19:34.298Z,-5.30
2023-02-03T02:22:13.109Z,-5.30
2023-02-03T02:24:56.830Z,-5.40
2023-02-03T02:28:01.043Z,-5.40
2023-02-03T02:30:55.237Z,-5.40
2023-02-03T02:34:01.954Z,-5.20
2023-02-03T02:36:35.209Z,-5.10
2023-02-03T02:39:23.268Z,-5.20
2023-02-03T02:42:01.470Z,-5.20
2023-02-03T02:44:39.373Z,-5.30
2023-02-03T02:47:16.498Z,-5.30
2023-02-03T02:50:09.128Z,-5.30
2023-02-03T02:52:41.266Z,-5.40
2023-02-03T02:55:15.557Z,-5.40
2023-02-03T02:57:44.604Z,-5.40
2023-02-03T03:00:12.768Z,-5.40
2023-02-03T03:02:39.839Z,-5.40
2023-02-03T03:05:09.002Z,-5.50
2023-02-03T03:07:53.002Z,-5.50
2023-02-03T03:10:25.014Z,-5.50
2023-02-03T03:12:59.238Z,-5.50
2023-02-03T03:15:30.780Z,-5.50
2023-02-03T03:18:09.856Z,-5.50
2023-02-03T03:20:42.882Z,-5.40
2023-02-03T03:23:20.007Z,-5.40
2023-02-03T03:25:51.756Z,-5.30
2023-02-03T03:28:26.745Z,-5.30
2023-02-03T03:30:54.017Z,-5.20
2023-02-03T03:33:22.578Z,-5.20
2023-02-03T03:36:05.103Z,-5.00
2023-02-03T03:38:45.414Z,-5.00
2023-02-03T03:41:19.832Z,-5.00
2023-02-03T03:43:48.505Z,-4.90
2023-02-03T03:46:23.171Z,-4.90
2023-02-03T03:49:06.050Z,-4.90
2023-02-03T03:51:48.278Z,-4.80
2023-02-03T03:54:20.511Z,-4.80
2023-02-03T03:57:00.078Z,-4.70
2023-02-03T03:59:31.399Z,-4.60
2023-02-03T04:02:04.580Z,-4.70
2023-02-03T04:04:35.144Z,-4.70
2023-02-03T04:07:03.458Z,-4.60
2023-02-03T04:09:30.516Z,-4.50
2023-02-03T04:12:03.174Z,-4.60
2023-02-03T04:14:31.732Z,-4.60
2023-02-03T04:16:59.261Z,-4.50
2023-02-03T04:19:26.742Z,-4.50
2023-02-03T04:21:53.618Z,-4.50
2023-02-03T04:24:20.678Z,-4.60
2023-02-03T04:26:47.550Z,-4.70
2023-02-03T04:29:14.373Z,-4.80
2023-02-03T04:31:41.417Z,-4.90
2023-02-03T04:34:08.297Z,-4.90
2023-02-03T04:36:35.152Z,-4.90
2023-02-03T04:39:02.069Z,-4.90
2023-02-03T04:41:29.067Z,-4.90
2023-02-03T04:43:55.875Z,-5.00
2023-02-03T04:46:22.825Z,-4.90
2023-02-03T04:48:49.641Z,-4.90
2023-02-03T04:51:16.824Z,-4.80
2023-02-03T04:53:43.650Z,-4.80
2023-02-03T04:56:10.524Z,-4.80
2023-02-03T04:58:37.916Z,-4.80
2023-02-03T05:01:09.340Z,-4.80
2023-02-03T05:03:36.958Z,-4.80
2023-02-03T05:06:04.064Z,-4.80
2023-02-03T05:08:31.116Z,-4.80
2023-02-03T05:10:59.592Z,-4.80
2023-02-03T05:13:28.256Z,-4.80
2023-02-03T05:15:55.122Z,-4.80
2023-02-03T05:18:21.931Z,-4.80
2023-02-03T05:20:48.917Z,-4.80
2023-02-03T05:23:15.760Z,-4.80
2023-02-03T05:25:44.566Z,-4.80
2023-02-03T05:28:11.677Z,-4.80
2023-02-03T05:30:38.718Z,-4.80
2023-02-03T05:33:05.681Z,-4.80
2023-02-03T05:35:32.774Z,-4.80
2023-02-03T05:37:59.571Z,-4.80
2023-02-03T05:40:45.017Z,-4.80
2023-02-03T05:43:11.952Z,-4.80
2023-02-03T05:45:38.798Z,-4.80
2023-02-03T05:48:07.408Z,-4.80
2023-02-03T05:50:38.491Z,-4.90
2023-02-03T05:53:08.893Z,-4.90
2023-02-03T05:55:36.484Z,-4.90
2023-02-03T05:58:03.727Z,-4.90
2023-02-03T06:00:30.907Z,-4.90
2023-02-03T06:03:02.590Z,-4.90
2023-02-03T06:05:30.925Z,-4.90
2023-02-03T06:07:57.744Z,-4.90
2023-02-03T06:10:24.896Z,-4.90
2023-02-03T06:12:51.871Z,-4.80
2023-02-03T06:15:19.083Z,-4.80
2023-02-03T06:17:47.295Z,-4.80
2023-02-03T06:20:16.527Z,-4.80
2023-02-03T06:22:43.502Z,-4.80
2023-02-03T06:25:13.030Z,-4.80
2023-02-03T06:27:40.446Z,-4.80
2023-02-03T06:30:08.345Z,-4.80
2023-02-03T06:32:35.076Z,-4.90
2023-02-03T06:35:01.875Z,-4.80
2023-02-03T06:37:28.761Z,-4.80
2023-02-03T06:39:55.536Z,-4.80
2023-02-03T06:42:22.399Z,-4.80
2023-02-03T06:44:49.257Z,-4.70
2023-02-03T06:47:16.183Z,-4.70
2023-02-03T06:49:43.078Z,-4.70
2023-02-03T06:52:09.926Z,-4.70
2023-02-03T06:54:36.788Z,-4.60
2023-02-03T06:57:04.242Z,-4.60
2023-02-03T06:59:31.113Z,-4.60
2023-02-03T07:01:58.114Z,-4.60
2023-02-03T07:04:25.197Z,-4.60
2023-02-03T07:06:52.061Z,-4.50
2023-02-03T07:09:18.837Z,-4.60
2023-02-03T07:11:45.648Z,-4.60
2023-02-03T07:14:12.448Z,-4.50
2023-02-03T07:16:39.280Z,-4.50
2023-02-03T07:19:06.319Z,-4.50
2023-02-03T07:21:33.150Z,-4.50
2023-02-03T07:24:00.014Z,-4.50
2023-02-03T07:26:26.868Z,-4.50
2023-02-03T07:28:54.583Z,-4.50
2023-02-03T07:31:21.753Z,-4.50
2023-02-03T07:33:49.122Z,-4.40
2023-02-03T07:36:15.881Z,-4.40
2023-02-03T07:38:42.753Z,-4.40
2023-02-03T07:41:10.214Z,-4.40
2023-02-03T07:43:37.121Z,-4.30
2023-02-03T07:46:04.393Z,-4.30
2023-02-03T07:48:31.347Z,-4.30
2023-02-03T07:50:58.211Z,-4.20
2023-02-03T07:53:25.001Z,-4.20
2023-02-03T07:55:51.938Z,-4.30
2023-02-03T07:58:18.718Z,-4.20
2023-02-03T08:00:45.563Z,-4.20
2023-02-03T08:03:12.708Z,-4.30
2023-02-03T08:05:39.517Z,-4.30
2023-02-03T08:08:06.395Z,-4.30
2023-02-03T08:10:33.488Z,-4.30
2023-02-03T08:13:00.381Z,-4.20
2023-02-03T08:15:27.400Z,-4.20
2023-02-03T08:17:54.269Z,-4.20
2023-02-03T08:20:21.211Z,-4.10
2023-02-03T08:22:48.045Z,-4.10
2023-02-03T08:25:14.925Z,-4.10
2023-02-03T08:27:42.064Z,-4.10
2023-02-03T08:30:12.053Z,-4.00
2023-02-03T08:32:38.873Z,-4.00
2023-02-03T08:35:06.211Z,-3.90
2023-02-03T08:37:33.159Z,-3.90
2023-02-03T08:40:00.194Z,-3.90
2023-02-03T08:42:27.381Z,-3.80
2023-02-03T08:44:54.357Z,-3.90
2023-02-03T08:47:21.410Z,-3.80
2023-02-03T08:49:48.226Z,-3.80
2023-02-03T08:52:18.153Z,-3.70
2023-02-03T08:54:46.726Z,-3.70
2023-02-03T08:57:13.931Z,-3.70
2023-02-03T08:59:42.697Z,-3.70
2023-02-03T09:02:17.173Z,-3.60
2023-02-03T09:04:45.455Z,-3.60
2023-02-03T09:07:13.421Z,-3.60
2023-02-03T09:09:40.404Z,-3.60
2023-02-03T09:12:07.593Z,-3.60
2023-02-03T09:14:35.123Z,-3.60
2023-02-03T09:17:03.654Z,-3.50
2023-02-03T09:19:31.428Z,-3.50
2023-02-03T09:21:58.329Z,-3.60
2023-02-03T09:24:25.679Z,-3.60
2023-02-03T09:26:52.792Z,-3.50
2023-02-03T09:29:19.902Z,-3.50
2023-02-03T09:31:48.678Z,-3.50
2023-02-03T09:34:15.534Z,-3.40
2023-02-03T09:36:43.190Z,-3.40
2023-02-03T09:39:10.252Z,-3.30
2023-02-03T09:41:44.627Z,-3.30
2023-02-03T09:44:32.253Z,-3.30
2023-02-03T09:47:19.310Z,-3.20
2023-02-03T09:49:51.394Z,-3.30
2023-02-03T09:52:19.961Z,-3.30
2023-02-03T09:54:58.689Z,-3.20
2023-02-03T09:57:28.341Z,-3.20
2023-02-03T09:59:59.233Z,-3.10
2023-02-03T10:02:58.479Z,-3.00
2023-02-03T10:05:30.955Z,-2.90
2023-02-03T10:08:17.126Z,-2.90
2023-02-03T10:11:10.739Z,-2.90
2023-02-03T10:13:48.845Z,-2.90
2023-02-03T10:16:45.987Z,-2.80
2023-02-03T10:19:42.240Z,-2.80
2023-02-03T10:22:16.505Z,-2.70
2023-02-03T10:25:00.933Z,-2.70
2023-02-03T10:27:28.889Z,-2.70
2023-02-03T10:30:20.763Z,-2.70
2023-02-03T10:33:01.809Z,-2.70
2023-02-03T10:35:52.193Z,-2.70
2023-02-03T10:38:24.497Z,-2.80
2023-02-03T10:40:51.506Z,-2.70
2023-02-03T10:43:36.934Z,-2.70
2023-02-03T10:46:04.393Z,-2.70
2023-02-03T10:48:31.216Z,-2.80
2023-02-03T10:50:58.763Z,-2.70
2023-02-03T10:53:36.527Z,-2.70
2023-02-03T10:56:03.268Z,-2.60
2023-02-03T10:58:33.399Z,-2.60
2023-02-03T11:01:13.952Z,-2.50
2023-02-03T11:03:59.996Z,-2.50
2023-02-03T11:06:27.877Z,-2.40
2023-02-03T11:08:55.421Z,-2.40
2023-02-03T11:11:25.674Z,-2.40
2023-02-03T11:14:03.141Z,-2.30
2023-02-03T11:16:32.571Z,-2.30
2023-02-03T11:19:04.409Z,-2.30
2023-02-03T11:21:38.806Z,-2.20
2023-02-03T11:24:28.550Z,-2.20
2023-02-03T11:27:10.033Z,-2.10
2023-02-03T11:29:50.376Z,-2.10
2023-02-03T11:32:33.526Z,-2.00
2023-02-03T11:35:15.998Z,-1.90
2023-02-03T11:37:45.433Z,-1.80
2023-02-03T11:40:22.349Z,-1.80
2023-02-03T11:42:49.132Z,-1.80
2023-02-03T11:45:24.741Z,-1.80
2023-02-03T11:47:54.475Z,-1.80
2023-02-03T11:50:39.516Z,-1.80
2023-02-03T11:53:24.993Z,-1.80
2023-02-03T11:55:57.880Z,-1.70
2023-02-03T11:58:44.734Z,-1.50
2023-02-03T12:01:22.816Z,-1.40
2023-02-03T12:03:52.414Z,-1.40
2023-02-03T12:06:25.131Z,-1.30
2023-02-03T12:09:17.933Z,-1.20
2023-02-03T12:12:07.208Z,-1.20
2023-02-03T12:14:45.924Z,-1.20
2023-02-03T12:17:18.699Z,-1.10
2023-02-03T12:20:11.179Z,-1.20
2023-02-03T12:23:00.379Z,-1.10
2023-02-03T12:25:39.559Z,-1.00
2023-02-03T12:28:27.302Z,-1.00
2023-02-03T12:31:12.159Z,-1.20
2023-02-03T12:33:46.330Z,-1.20
2023-02-03T12:36:22.382Z,-1.20
2023-02-03T12:39:10.932Z,-1.20
2023-02-03T12:41:46.479Z,-1.30
2023-02-03T12:44:22.008Z,-1.40
2023-02-03T12:47:01.580Z,-1.40
2023-02-03T12:49:40.250Z,-1.30
2023-02-03T12:52:23.070Z,-1.30
2023-02-03T12:54:58.801Z,-1.20
2023-02-03T12:57:35.901Z,-1.20
2023-02-03T13:00:41.288Z,-1.10
2023-02-03T13:03:26.808Z,-1.10
2023-02-03T13:06:31.452Z,-1.00
2023-02-03T13:08:58.252Z,-1.00
2023-02-03T13:11:46.015Z,-1.00
2023-02-03T13:14:19.787Z,-0.90
2023-02-03T13:16:53.598Z,-0.90
2023-02-03T13:19:29.468Z,-1.00
2023-02-03T13:21:56.725Z,-0.90
2023-02-03T13:24:25.468Z,-1.00
2023-02-03T13:27:24.627Z,-1.00
2023-02-03T13:30:17.325Z,-1.00
2023-02-03T13:32:57.401Z,-1.10
2023-02-03T13:35:33.866Z,-1.10
2023-02-03T13:38:12.465Z,-1.00
2023-02-03T13:41:01.684Z,-1.00
2023-02-03T13:43:38.600Z,-1.10
2023-02-03T13:46:17.727Z,-1.20
2023-02-03T13:48:46.644Z,-1.40
2023-02-03T13:51:24.051Z,-1.40
2023-02-03T13:53:58.793Z,-1.50
2023-02-03T13:56:30.539Z,-1.50
2023-02-03T13:59:15.738Z,-1.50
2023-02-03T14:01:43.738Z,-1.60
2023-02-03T14:04:25.809Z,-1.60
2023-02-03T14:06:52.592Z,-1.70
2023-02-03T14:09:34.605Z,-1.70
2023-02-03T14:12:29.547Z,-1.60
2023-02-03T14:15:04.463Z,-1.60
2023-02-03T14:17:34.394Z,-1.50
2023-02-03T14:20:03.652Z,-1.40
2023-02-03T14:22:31.638Z,-1.40
2023-02-03T14:25:04.030Z,-1.40
2023-02-03T14:27:31.486Z,-1.40
2023-02-03T14:30:08.042Z,-1.40
2023-02-03T14:32:58.662Z,-1.50
2023-02-03T14:35:37.554Z,-1.50
2023-02-03T14:38:08.849Z,-1.60
2023-02-03T14:40:45.764Z,-1.60
2023-02-03T14:43:27.609Z,-1.60
2023-02-03T14:46:06.505Z,-1.60
2023-02-03T14:48:42.193Z,-1.70
2023-02-03T14:51:46.807Z,-1.70
2023-02-03T14:54:31.293Z,-1.70
2023-02-03T14:57:16.854Z,-1.70
2023-02-03T14:59:48.836Z,-1.70
2023-02-03T15:02:20.163Z,-1.80
2023-02-03T15:04:50.301Z,-1.80
2023-02-03T15:07:44.329Z,-2.00
2023-02-03T15:10:22.634Z,-2.10
2023-02-03T15:12:58.160Z,-2.20
2023-02-03T15:15:31.049Z,-2.30
2023-02-03T15:18:00.764Z,-2.30
2023-02-03T15:20:41.145Z,-2.40
2023-02-03T15:23:21.157Z,-2.30
2023-02-03T15:26:02.918Z,-2.30
2023-02-03T15:28:30.686Z,-2.30
2023-02-03T15:31:07.234Z,-2.30
2023-02-03T15:33:36.836Z,-2.30
2023-02-03T15:36:11.476Z,-2.30
2023-02-03T15:38:45.968Z,-2.30
2023-02-03T15:41:26.230Z,-2.30
2023-02-03T15:44:33.129Z,-2.40
2023-02-03T15:47:03.278Z,-2.30
2023-02-03T15:49:34.942Z,-2.30
2023-02-03T15:52:17.062Z,-2.30
2023-02-03T15:54:53.461Z,-2.40
2023-02-03T15:57:33.876Z,-2.40
2023-02-03T16:00:26.235Z,-2.40
2023-02-03T16:02:54.219Z,-2.40
2023-02-03T16:05:34.398Z,-2.50
2023-02-03T16:08:35.096Z,-2.50
2023-02-03T16:11:02.654Z,-2.50
2023-02-03T16:13:30.756Z,-2.60
2023-02-03T16:16:15.739Z,-2.60
2023-02-03T16:18:52.067Z,-2.60
2023-02-03T16:21:47.950Z,-2.60
2023-02-03T16:24:32.995Z,-2.50
2023-02-03T16:27:21.935Z,-2.60
2023-02-03T16:30:07.698Z,-2.60
2023-02-03T16:32:53.053Z,-2.50
2023-02-03T16:35:38.449Z,-2.60
2023-02-03T16:38:26.225Z,-2.60
2023-02-03T16:41:11.707Z,-2.60
2023-02-03T16:43:57.139Z,-2.60
2023-02-03T16:46:42.524Z,-2.60
2023-02-03T16:49:27.908Z,-2.60
2023-02-03T16:51:54.784Z,-2.60
2023-02-03T16:54:21.573Z,-2.60
2023-02-03T16:56:49.399Z,-2.60
2023-02-03T16:59:16.313Z,-2.60
2023-02-03T17:01:43.148Z,-2.60
2023-02-03T17:04:11.611Z,-2.60
2023-02-03T17:06:39.771Z,-2.50
2023-02-03T17:09:07.608Z,-2.50
2023-02-03T17:11:34.441Z,-2.50
2023-02-03T17:14:01.801Z,-2.60
2023-02-03T17:16:28.630Z,-2.60
2023-02-03T17:18:55.673Z,-2.60
2023-02-03T17:21:25.454Z,-2.60
2023-02-03T17:23:52.571Z,-2.70
2023-02-03T17:26:19.545Z,-2.70
2023-02-03T17:28:46.692Z,-2.70
2023-02-03T17:31:19.922Z,-2.70
2023-02-03T17:33:50.753Z,-2.60
2023-02-03T17:36:21.547Z,-2.60
2023-02-03T17:55:19.541Z,-2.60
2023-02-03T17:57:46.334Z,-2.60
2023-02-03T18:00:13.532Z,-2.70
2023-02-03T18:02:40.467Z,-2.70
2023-02-03T18:05:07.616Z,-2.70
2023-02-03T18:07:34.492Z,-2.70
2023-02-03T18:10:01.565Z,-2.70
2023-02-03T18:12:28.391Z,-2.80
2023-02-03T18:14:56.253Z,-2.80
2023-02-03T18:17:23.954Z,-2.80
2023-02-03T18:19:55.712Z,-2.80
2023-02-03T18:22:23.770Z,-2.80
2023-02-03T18:24:51.807Z,-2.80
2023-02-03T18:27:18.550Z,-2.70
2023-02-03T18:29:46.498Z,-2.60
2023-02-03T18:32:14.815Z,-2.50
2023-02-03T18:34:42.246Z,-2.50
2023-02-03T18:37:09.176Z,-2.50
2023-02-03T18:39:36.219Z,-2.60
2023-02-03T18:42:03.859Z,-2.70
2023-02-03T18:44:31.734Z,-2.80
2023-02-03T18:47:06.806Z,-2.90
2023-02-03T18:49:37.797Z,-2.90
2023-02-03T18:52:04.913Z,-3.00
2023-02-03T18:54:31.777Z,-3.00
2023-02-03T18:56:58.962Z,-3.00
2023-02-03T18:59:26.209Z,-3.00
2023-02-03T19:01:53.343Z,-3.00
2023-02-03T19:04:20.558Z,-2.90
2023-02-03T19:06:47.711Z,-3.00
2023-02-03T19:09:17.085Z,-2.90
2023-02-03T19:11:44.370Z,-3.00
2023-02-03T19:14:13.126Z,-2.90
2023-02-03T19:16:40.242Z,-2.90
2023-02-03T19:19:07.080Z,-2.90
2023-02-03T19:21:34.066Z,-2.90
2023-02-03T19:24:01.231Z,-2.90
2023-02-03T19:26:28.110Z,-2.80
2023-02-03T19:28:56.054Z,-2.70
2023-02-03T19:31:23.310Z,-2.80
2023-02-03T19:33:50.566Z,-2.80
2023-02-03T19:36:17.756Z,-2.80
2023-02-03T19:38:44.667Z,-2.80
2023-02-03T19:41:11.877Z,-2.90
2023-02-03T19:43:40.166Z,-2.90
2023-02-03T19:46:08.349Z,-2.80
2023-02-03T19:48:35.552Z,-2.90
2023-02-03T19:51:02.383Z,-3.00
2023-02-03T19:53:29.232Z,-3.00
2023-02-03T19:55:56.055Z,-3.10
2023-02-03T19:58:24.122Z,-3.10
2023-02-03T20:00:50.973Z,-3.10
2023-02-03T20:03:19.668Z,-3.00
2023-02-03T20:05:47.060Z,-2.90
2023-02-03T20:08:16.707Z,-2.90
2023-02-03T20:10:45.342Z,-2.90
2023-02-03T20:13:13.153Z,-2.90
2023-02-03T20:15:40.088Z,-3.00
2023-02-03T20:18:07.814Z,-2.90
2023-02-03T20:20:35.947Z,-2.90
2023-02-03T20:23:03.203Z,-2.90
2023-02-03T20:25:30.208Z,-2.90
2023-02-03T20:27:58.233Z,-2.80
2023-02-03T20:30:25.130Z,-2.70
2023-02-03T20:32:51.984Z,-2.70
2023-02-03T20:35:19.869Z,-2.60
2023-02-03T20:37:47.141Z,-2.60
2023-02-03T20:40:17.255Z,-2.60
2023-02-03T20:42:44.325Z,-2.50
2023-02-03T20:45:16.682Z,-2.60
2023-02-03T20:47:44.322Z,-2.50
2023-02-03T20:50:28.886Z,-2.60
2023-02-03T20:52:58.661Z,-2.70
2023-02-03T20:55:26.114Z,-2.70
2023-02-03T20:57:55.055Z,-2.70
2023-02-03T21:00:26.501Z,-2.80
2023-02-03T21:03:13.391Z,-2.70
2023-02-03T21:05:42.402Z,-2.70
2023-02-03T21:08:18.413Z,-2.80
2023-02-03T21:10:46.659Z,-2.70
2023-02-03T21:13:35.911Z,-2.60
2023-02-03T21:16:11.364Z,-2.50
2023-02-03T21:18:53.353Z,-2.50
2023-02-03T21:21:27.497Z,-2.50
2023-02-03T21:23:54.764Z,-2.50
2023-02-03T21:26:24.030Z,-2.60
2023-02-03T21:28:53.772Z,-2.60
2023-02-03T21:31:30.688Z,-2.60
2023-02-03T21:34:02.388Z,-2.70
2023-02-03T21:36:33.386Z,-2.70
2023-02-03T21:39:00.934Z,-2.60
2023-02-03T21:41:33.106Z,-2.50
2023-02-03T21:44:00.566Z,-2.60
2023-02-03T21:46:33.359Z,-2.60
2023-02-03T21:49:01.993Z,-2.60
2023-02-03T21:51:39.622Z,-2.60
2023-02-03T21:54:28.693Z,-2.50
2023-02-03T21:56:56.817Z,-2.50
2023-02-03T21:59:33.303Z,-2.40
2023-02-03T22:02:00.674Z,-2.50
2023-02-03T22:04:28.601Z,-2.40
2023-02-03T22:06:55.486Z,-2.40
2023-02-03T22:09:26.856Z,-2.50
2023-02-03T22:11:53.944Z,-2.60
2023-02-03T22:14:21.102Z,-2.70
2023-02-03T22:16:48.316Z,-2.70
2023-02-03T22:19:17.582Z,-2.70
2023-02-03T22:21:44.793Z,-2.70
2023-02-03T22:24:11.775Z,-2.60
2023-02-03T22:26:38.673Z,-2.60
2023-02-03T22:29:05.724Z,-2.60
2023-02-03T22:31:32.964Z,-2.60
2023-02-03T22:33:59.897Z,-2.50
2023-02-03T22:36:26.765Z,-2.50
2023-02-03T22:38:53.733Z,-2.50
2023-02-03T22:41:21.580Z,-2.50
2023-02-03T22:43:48.595Z,-2.50
2023-02-03T22:46:15.459Z,-2.50
2023-02-03T22:48:42.513Z,-2.60
2023-02-03T22:51:09.458Z,-2.70
2023-02-03T22:53:36.496Z,-2.70
2023-02-03T22:56:03.509Z,-2.70
2023-02-03T22:58:30.358Z,-2.70
2023-02-03T23:00:57.261Z,-2.60
2023-02-03T23:03:24.126Z,-2.60
2023-02-03T23:05:51.105Z,-2.60
2023-02-03T23:08:17.869Z,-2.60
2023-02-03T23:10:44.902Z,-2.60
2023-02-03T23:13:11.854Z,-2.70
2023-02-03T23:15:38.741Z,-2.70
2023-02-03T23:18:05.645Z,-2.60
2023-02-03T23:20:33.032Z,-2.60
2023-02-03T23:22:59.966Z,-2.60
2023-02-03T23:25:26.779Z,-2.70
2023-02-03T23:27:53.651Z,-2.70
2023-02-03T23:30:20.446Z,-2.70
2023-02-03T23:32:47.270Z,-2.70
2023-02-03T23:35:32.583Z,-2.60
2023-02-03T23:37:59.452Z,-2.60
2023-02-03T23:40:26.250Z,-2.50
2023-02-03T23:42:53.214Z,-2.50
2023-02-03T23:45:20.157Z,-2.50
2023-02-03T23:47:47.075Z,-2.50
2023-02-03T23:50:16.594Z,-2.40
2023-02-03T23:52:43.424Z,-2.50
2023-02-03T23:55:15.086Z,-2.60
2023-02-03T23:57:45.222Z,-2.60
